Angelo Donati

Olheiro-Chefe - Ospitaletto
15 Jan 2030
Terça-feira
Processo

Personalidade

Adaptabilidade (16) Ambição (4) Controvérsia (17) Lealdade (6) Pressão (20) Profissionalismo (10) Espírito Esportivo (9) Temperamento (1)

Perfil

Estilo de Treinamento Democrático
Licença Nacional A
Determinação 6
Gestão de Pessoas 4
Motivação 6
Disciplina 8
Satisfação no Trabalho
100%
Fadiga
0%
Função Olheiro-Chefe
Salário 37.6K p/s
Contrato 14.03.2030

Desempenho

Comportamento Bom
Eficácia do Treinamento
23%
Desenvolvimento do Jogador
20%
Prevenção de Lesões
25%
Implementação Tática
40%

Eventos Recentes

Negociação de contrato iniciada agora
Avaliou um jogador agora
Participou de uma reunião de recrutamento agora
Negociação de contrato iniciada 7d atrás
Negociação de contrato iniciada 7d atrás
Negociação de contrato iniciada 7d atrás
Negociação de contrato iniciada 7d atrás
Negociação de contrato iniciada 7d atrás

Monitorando agora

100
Jogador Clube Status Habilidade Confiança Observado Última observação Último voto
Sebastiano Damico Vis Pesaro Ativo 72 / 84 62% 1 01.01.2030 Aprovar
Sheikh Sibi Virtus Verona Ativo 118 / 118 50% 2 / 1m 19.09.2029 -
Filippo Pirola Alcione Milano Ativo 114 / 111 40% 1 07.08.2029 -
Lawrence Ofori Casa Pia Ativo 133 / 131 40% 2 06.08.2029 -
Santiago Salle Independiente Ativo 119 / 124 40% 1 05.08.2029 -
Moritz Oswald Rapid Wien Ativo 125 / 124 40% 1 02.08.2029 -
Clément Michelin Bayer Leverkusen Ativo 133 / 127 40% 3 01.08.2029 -
Ugochukwu Iwu Red Bull Salzburg Ativo 133 / 128 40% 2 01.08.2029 -
Josué Homawoo Standard Liege Ativo 129 / 126 40% 1 31.07.2029 -
Siro Rosané Estudiantes Ativo 131 / 121 40% 1 28.07.2029 -
Mikkel Ceïde Stabaek Ativo 124 / 121 40% 1 28.07.2029 -
Wes Harding Wolverhampton Ativo 118 / 126 40% 2 26.07.2029 -
Matěj Hadaš Sigma Olomouc Ativo 137 / 119 40% 2 24.07.2029 -
Galo Capomaggio Salernitana Ativo 121 / 119 40% 1 24.07.2029 -
Stefan Gartenmann Sampdoria Ativo 125 / 124 40% 1 23.07.2029 -
George Edmundson Middlesbrough Ativo 126 / 129 40% 1 22.07.2029 -
Davide Buglio Catanzaro Ativo 119 / 127 40% 2 20.07.2029 -
Pietro Beruatto Pisa Ativo 120 / 123 40% 2 20.07.2029 -
Mamadou Loum Gijón Ativo 114 / 116 40% 1 19.07.2029 -
Julián Illanes Carrarese Ativo 116 / 127 40% 1 16.07.2029 -
Sandro Lauper Young Boys Ativo 113 / 118 40% 1 15.07.2029 -
Nair Tiknizyan Olympiacos Ativo 125 / 133 40% 1 14.07.2029 -
Peter Kioso Oxford United Ativo 132 / 124 40% 1 13.07.2029 -
José Aldo Mirassol Ativo 123 / 127 40% 2 11.07.2029 -
Juan Manuel Villalba Estudiantes Ativo 115 / 123 40% 2 09.07.2029 -
Darlan Mendes Palermo Ativo 123 / 125 40% 1 06.07.2029 -
Luca Magnino Empoli Ativo 123 / 127 40% 1 02.07.2029 -
Woody Williamson Vis Pesaro Ativo 121 / 111 40% 1 02.07.2029 -
Javi Díaz Newport County Ativo 123 / 118 40% 2 30.06.2029 -
Darko Todorović Fakel Ativo 112 / 115 40% 1 30.06.2029 -
Giovanni Stellato Guidonia Montecelio Ativo 111 / 108 40% 1 30.06.2029 -
Leonardo Santer Trento Ativo 94 / 115 40% 1 29.06.2029 -
Callum Burton Cheltenham Town Ativo 110 / 112 40% 1 29.06.2029 -
Ahmed Touba Panathinaikos Ativo 123 / 119 40% 1 28.06.2029 -
Francisco Salerno Defensores Unidos Ativo 109 / 116 40% 1 27.06.2029 -
Michele Avella Renate Ativo 119 / 118 40% 1 26.06.2029 -
Enis Çokaj Panathinaikos Ativo 117 / 129 40% 1 24.06.2029 -
Jhon Palacios HNK Rijeka Ativo 113 / 121 40% 1 24.06.2029 -
Téo Barišić Viktoria Plzen Ativo 116 / 122 40% 1 19.06.2029 -
Gabriele Corbo Campobasso Ativo 124 / 118 40% 1 18.06.2029 -
Connor Mahoney Barrow AFC Ativo 106 / 97 40% 1 05.06.2029 -
Ged Garner Newport County Ativo 99 / 93 40% 1 05.06.2029 -
Almustapha Kabiru Pianese Rejeitado 89 / 93 70% 1 01.06.2029 Rejeitar
Gino Barbieri Almagro Ativo 110 / 114 40% 1 07.08.2028 -
Delfor Minervino Estudiantes Ativo 120 / 108 40% 1 07.08.2028 -
Pietro Martino Casertana Ativo 106 / 112 40% 1 01.08.2028 -
Obasuyi Freedom Modena Ativo 75 / 77 48% 1 26.06.2028 -
Danilo Petriccione Forli Ativo 115 / 102 40% 1 10.01.2028 -
Andrea Dini Catania Ativo 117 / 118 40% 1 10.01.2028 -
Maiko Candiano Siracusa Ativo 105 / 108 40% 1 01.08.2027 -
Marco Rosafio Altamura Ativo 92 / 93 40% 2 31.07.2027 -
Cristian Battocchio Monopoli Ativo 114 / 110 40% 1 31.07.2027 -
Riccardo Fiamozzi Trento Ativo 118 / 114 40% 1 30.07.2027 -
Alessio Vita Cittadella Ativo 125 / 119 40% 1 30.07.2027 -
Carlo Crialese Cittadella Ativo 117 / 96 40% 1 28.07.2027 -
Faysel Kasmi Cavese Ativo 84 / 89 40% 2 27.07.2027 -
Bryan Nouvier Campobasso Ativo 88 / 106 40% 1 27.07.2027 -
Federico Ricci Sorrento Ativo 95 / 106 40% 1 26.07.2027 -
Pelly-Ruddock Mpanzu Cambridge United Ativo 96 / 106 40% 2 23.07.2027 -
Jacopo Manconi Casertana Ativo 110 / 115 40% 1 23.07.2027 -
Paolo Frascatore Guidonia Montecelio Ativo 101 / 115 40% 1 19.07.2027 -
Eric Lanini Novara Ativo 121 / 92 40% 1 19.07.2027 -
César Falletti Ternana Ativo 114 / 116 40% 1 17.07.2027 -
Mal Benning Shrewsbury Town Ativo 79 / 85 40% 1 17.07.2027 -
Andrea Gemignani Picerno Ativo 91 / 89 40% 1 16.07.2027 -
Salvatore Molina Südtirol Ativo 119 / 126 40% 1 15.07.2027 -
Michele Rocca Lumezzane Ativo 101 / 103 40% 1 14.07.2027 -
Miguel Pabón Torres Ativo 104 / 93 40% 2 12.07.2027 -
Tom Barkhuizen Barrow AFC Ativo 97 / 93 40% 1 12.07.2027 -
Sam Hoskins Northampton Town Ativo 114 / 99 40% 1 11.07.2027 -
Riccardo Improta Giugliano Ativo 103 / 107 40% 1 11.07.2027 -
Donald Love Accrington Stanley Ativo 83 / 87 40% 1 10.07.2027 -
Onel Hernández Port Vale Ativo 101 / 108 40% 1 10.07.2027 -
Giuseppe Mastinu Torres Ativo 97 / 112 40% 1 05.07.2027 -
Kayden Jackson Bradford City Ativo 114 / 105 40% 1 05.07.2027 -
Harrison Biggins Shrewsbury Town Ativo 89 / 99 40% 1 30.06.2027 -
Jonathan Vega Chelyabinsk Ativo 78 / 82 40% 1 30.06.2027 -
Roberto Zammarini Giugliano Ativo 105 / 99 40% 1 28.06.2027 -
Domi Berlanga Vicenza Ativo 102 / 102 40% 1 28.06.2027 -
Diego Peralta Livorno Ativo 98 / 98 40% 1 27.06.2027 -
Leonardo Capezzi Sorrento Ativo 120 / 100 40% 1 23.06.2027 -
Igor Gorbunov Arsenal Tula Ativo 88 / 106 40% 1 22.06.2027 -
Lorenzo Moschetta Pro Vercelli Ativo 72 / 97 44% 1 21.06.2027 -
Ilario Iotti Pro Vercelli Ativo 89 / 95 40% 1 20.06.2027 -
Nicola Murru Gubbio Ativo 94 / 105 40% 1 20.06.2027 -
Francesco Menarini Forli Ativo 112 / 86 40% 1 16.06.2027 -
Eugenio D'Ursi Salernitana Ativo 100 / 97 40% 1 15.06.2027 -
Luca Crecco Sorrento Ativo 115 / 98 40% 1 14.06.2027 -
Nicola Fasan Lecco Ativo 83 / 88 40% 1 14.06.2027 -
Jean Marie Dongou Canon Yaounde Ativo 85 / 88 40% 1 24.01.2027 -
Bruno Gomes Valletta Ativo 110 / 106 40% 2 23.01.2027 -
Yehor Hunichev Feniks Ativo 77 / 87 40% 1 21.01.2027 -
Louis Appéré Cambridge United Ativo 108 / 105 40% 1 19.01.2027 -
Ivan Luquetta KAMAZ Ativo 87 / 94 40% 1 18.01.2027 -
Lamine Diakité Djoliba Ativo 126 / 105 40% 1 18.01.2027 -
Cristian Álvarez Jaguares Ativo 121 / 114 40% 1 11.08.2026 -
Guillermo Cotugno Racing Ativo 134 / 119 40% 1 10.08.2026 -
Thomas Ince Watford Ativo 104 / 119 40% 1 04.08.2026 -
Jesús Hernández Estudiantes de Merida Ativo 126 / 107 40% 1 04.08.2026 -
Zacarías López Iquique Ativo 110 / 88 40% 1 02.08.2026 -